Time;durP1;ratioP1;P1;durP2;ratioP2;P2;SDS_P1;SDS_P2;PMS_P1;PMS_P2;Temp;Humidity;BMP_temperature;BMP_pressure;BME280_temperature;BME280_humidity;BME280_pressure;Samples;Min_cycle;Max_cycle;Signal;HPM_P1;HPM_P2
2023/01/23 00:01:22;;;;;;;1.17;0.73;;;3.20;99.90;;;;;;5018688;28;20417;-82
2023/01/23 00:03:47;;;;;;;5.00;1.27;;;3.10;99.90;;;;;;5020858;28;20216;-93
2023/01/23 00:06:14;;;;;;;3.63;1.03;;;3.10;99.90;;;;;;5025247;28;20411;-93
2023/01/23 00:08:42;;;;;;;3.20;1.40;;;3.10;99.90;;;;;;5018462;28;20249;-93
2023/01/23 00:11:11;;;;;;;3.20;1.20;;;3.00;99.90;;;;;;5016904;28;20426;-85
2023/01/23 00:13:37;;;;;;;1.33;0.73;;;3.00;99.90;;;;;;5017816;28;20764;-92
2023/01/23 00:16:08;;;;;;;1.50;1.03;;;3.00;99.90;;;;;;4979529;28;20437;-91
2023/01/23 00:18:34;;;;;;;1.90;1.20;;;3.00;99.90;;;;;;5021934;28;20429;-90
2023/01/23 00:21:23;;;;;;;2.97;0.77;;;3.00;99.90;;;;;;5026085;28;20700;-83
2023/01/23 00:23:52;;;;;;;1.10;0.70;;;3.00;99.90;;;;;;5028001;28;20171;-95
2023/01/23 00:26:21;;;;;;;1.70;0.77;;;3.00;99.90;;;;;;5030827;28;20435;-90
2023/01/23 00:28:48;;;;;;;3.43;1.30;;;3.00;99.90;;;;;;5005087;28;20462;-96
2023/01/23 00:31:19;;;;;;;1.43;0.73;;;3.00;99.90;;;;;;5018994;28;20423;-87
2023/01/23 00:33:51;;;;;;;4.20;0.90;;;3.00;99.90;;;;;;5095299;23;20485;-81
2023/01/23 00:36:18;;;;;;;2.00;0.80;;;3.00;99.90;;;;;;5019620;28;20418;-93
2023/01/23 00:38:47;;;;;;;2.20;1.40;;;3.00;99.90;;;;;;5015846;28;20617;-92
2023/01/23 00:41:12;;;;;;;2.80;1.33;;;3.00;99.90;;;;;;5018327;28;20452;-84
2023/01/23 00:43:38;;;;;;;5.57;0.60;;;3.00;99.90;;;;;;4998545;28;20422;-92
2023/01/23 00:46:03;;;;;;;2.23;0.83;;;3.00;99.90;;;;;;5015481;28;20175;-94
2023/01/23 00:48:29;;;;;;;2.00;1.00;;;3.00;99.90;;;;;;5016312;28;20533;-86
2023/01/23 00:50:57;;;;;;;1.80;1.20;;;3.00;99.90;;;;;;5018305;28;20280;-83
2023/01/23 00:53:23;;;;;;;1.20;0.60;;;3.10;99.90;;;;;;5017678;28;20174;-88
2023/01/23 00:55:49;;;;;;;4.63;1.63;;;3.00;99.90;;;;;;5003131;28;20533;-90
2023/01/23 00:58:14;;;;;;;2.40;1.13;;;3.00;99.90;;;;;;5002188;28;20643;-89
2023/01/23 01:00:40;;;;;;;5.00;0.90;;;3.00;99.90;;;;;;5018312;28;20669;-91
2023/01/23 01:03:06;;;;;;;3.03;1.33;;;3.00;99.90;;;;;;5016327;28;20186;-83
2023/01/23 01:05:32;;;;;;;3.27;1.00;;;3.00;99.90;;;;;;5014837;28;20512;-82
2023/01/23 01:07:58;;;;;;;1.90;0.97;;;3.10;99.90;;;;;;5002301;28;20546;-94
2023/01/23 01:10:28;;;;;;;3.23;1.13;;;3.00;99.90;;;;;;5029068;28;20446;-91
2023/01/23 01:12:56;;;;;;;3.43;0.93;;;3.00;99.90;;;;;;5031204;28;20186;-92
2023/01/23 01:15:22;;;;;;;2.93;0.93;;;2.90;99.90;;;;;;5007377;28;20838;-82
2023/01/23 01:17:48;;;;;;;1.97;0.40;;;2.90;99.90;;;;;;5023706;28;20429;-93
2023/01/23 01:20:14;;;;;;;2.67;0.87;;;2.90;99.90;;;;;;5023530;28;20583;-85
2023/01/23 01:22:40;;;;;;;2.70;0.63;;;2.90;99.90;;;;;;5034720;28;20433;-87
2023/01/23 01:25:06;;;;;;;2.80;1.03;;;2.90;99.90;;;;;;5034233;28;20433;-83
2023/01/23 01:27:31;;;;;;;2.80;0.67;;;2.90;99.90;;;;;;5036265;28;20234;-83
2023/01/23 01:29:57;;;;;;;4.77;1.10;;;3.00;99.90;;;;;;5020038;28;20461;-90
2023/01/23 01:32:22;;;;;;;2.47;0.63;;;2.90;99.90;;;;;;5035471;28;20171;-83
2023/01/23 01:34:50;;;;;;;1.53;0.70;;;3.00;99.90;;;;;;5018064;28;20263;-82
2023/01/23 01:37:15;;;;;;;1.50;0.97;;;3.00;99.90;;;;;;4997950;28;20179;-83
2023/01/23 01:39:44;;;;;;;2.93;0.80;;;3.00;99.90;;;;;;5003528;28;20863;-83
2023/01/23 01:42:09;;;;;;;3.60;0.90;;;3.00;99.90;;;;;;5009147;28;20171;-94
2023/01/23 01:44:58;;;;;;;2.03;0.87;;;3.00;99.90;;;;;;5001924;28;20459;-91
2023/01/23 01:47:25;;;;;;;2.00;1.17;;;3.00;99.90;;;;;;5017978;28;20693;-91
2023/01/23 01:49:57;;;;;;;1.73;1.00;;;3.00;99.90;;;;;;4984258;28;21037;-87
2023/01/23 01:52:23;;;;;;;2.63;0.87;;;3.00;99.90;;;;;;5004963;28;20419;-89
2023/01/23 01:55:00;;;;;;;4.23;0.67;;;3.00;99.90;;;;;;5024284;28;20530;-89
2023/01/23 01:57:29;;;;;;;1.80;1.27;;;3.00;99.90;;;;;;5002631;28;20422;-93
2023/01/23 02:00:15;;;;;;;2.97;0.87;;;3.00;99.90;;;;;;5003367;28;20548;-90
2023/01/23 02:02:49;;;;;;;3.27;1.10;;;2.90;99.90;;;;;;5003695;28;20524;-89
2023/01/23 02:05:20;;;;;;;1.97;1.13;;;3.00;99.90;;;;;;5002675;28;20414;-84
2023/01/23 02:07:53;;;;;;;1.57;0.63;;;3.00;99.90;;;;;;4981981;28;20443;-84
2023/01/23 02:10:19;;;;;;;1.53;0.50;;;3.00;99.90;;;;;;5018827;28;20417;-95
2023/01/23 02:12:46;;;;;;;2.30;0.60;;;3.00;99.90;;;;;;4984267;28;20776;-90
2023/01/23 02:15:12;;;;;;;4.17;1.30;;;2.90;99.90;;;;;;5001390;28;20426;-94
2023/01/23 02:17:37;;;;;;;2.63;1.40;;;3.00;99.90;;;;;;5018649;28;20408;-92
2023/01/23 02:20:27;;;;;;;2.60;0.73;;;3.00;99.90;;;;;;5016377;28;20222;-91
2023/01/23 02:23:05;;;;;;;1.23;0.90;;;3.00;99.90;;;;;;4998756;28;20644;-89
2023/01/23 02:26:00;;;;;;;4.93;0.70;;;3.00;99.90;;;;;;5016630;28;20914;-82
2023/01/23 02:28:40;;;;;;;2.83;0.80;;;3.00;99.90;;;;;;4997874;28;20460;-94
2023/01/23 02:31:06;;;;;;;1.03;0.67;;;2.90;99.90;;;;;;5001696;28;20418;-85
2023/01/23 02:33:32;;;;;;;4.20;0.90;;;3.00;99.90;;;;;;5001498;28;20464;-92
2023/01/23 02:35:58;;;;;;;2.77;1.00;;;3.00;99.90;;;;;;5001424;28;20276;-94
2023/01/23 02:38:26;;;;;;;1.57;0.90;;;3.00;99.90;;;;;;5005536;28;20182;-83
2023/01/23 02:40:59;;;;;;;2.10;0.70;;;3.00;99.90;;;;;;5014127;23;20490;-82
2023/01/23 02:43:33;;;;;;;1.90;0.53;;;3.00;99.90;;;;;;5013568;28;20415;-83
2023/01/23 02:46:01;;;;;;;1.67;0.50;;;3.00;99.90;;;;;;5012299;28;20438;-82
2023/01/23 02:48:26;;;;;;;1.60;0.77;;;2.90;99.90;;;;;;5018136;28;20450;-83
2023/01/23 02:50:52;;;;;;;2.47;0.80;;;2.90;99.90;;;;;;5001202;28;20470;-92
2023/01/23 02:53:17;;;;;;;1.00;0.50;;;2.90;99.90;;;;;;4996020;28;20227;-94
2023/01/23 02:55:43;;;;;;;2.40;0.70;;;2.90;99.90;;;;;;4996111;28;20183;-92
2023/01/23 03:00:53;;;;;;;2.10;0.57;;;2.90;99.90;;;;;;4996545;28;20442;-92
2023/01/23 03:03:18;;;;;;;1.67;0.73;;;2.90;99.90;;;;;;4996407;28;20416;-92
2023/01/23 03:05:46;;;;;;;2.57;0.77;;;2.90;99.90;;;;;;4990008;28;20175;-92
2023/01/23 03:08:11;;;;;;;1.30;0.57;;;2.90;99.90;;;;;;4994975;28;20203;-92
2023/01/23 03:10:37;;;;;;;2.07;1.10;;;2.80;99.90;;;;;;4989453;28;20515;-91
2023/01/23 03:13:05;;;;;;;2.17;1.00;;;2.80;99.90;;;;;;4996200;28;20180;-90
2023/01/23 03:15:32;;;;;;;2.50;0.70;;;2.90;99.90;;;;;;4988632;28;20607;-91
2023/01/23 03:17:58;;;;;;;2.07;0.87;;;2.90;99.90;;;;;;4995035;28;20418;-90
2023/01/23 03:20:25;;;;;;;1.93;0.53;;;2.90;99.90;;;;;;4995474;28;20463;-92
2023/01/23 03:22:51;;;;;;;2.13;0.97;;;2.90;99.90;;;;;;4995935;28;20826;-90
2023/01/23 03:25:17;;;;;;;1.73;1.00;;;2.90;99.90;;;;;;4994210;28;20418;-92
2023/01/23 03:27:42;;;;;;;2.20;0.60;;;2.90;99.90;;;;;;4995416;28;20178;-92
2023/01/23 03:30:15;;;;;;;2.20;1.10;;;2.80;99.90;;;;;;4993067;28;20570;-91
2023/01/23 03:32:42;;;;;;;1.67;0.67;;;2.90;99.90;;;;;;4995523;28;20171;-93
2023/01/23 03:35:12;;;;;;;1.57;0.80;;;2.80;99.90;;;;;;4961259;28;20445;-83
2023/01/23 03:37:38;;;;;;;1.60;0.80;;;2.80;99.90;;;;;;4995533;28;20420;-91
2023/01/23 03:42:48;;;;;;;2.33;0.90;;;2.90;99.90;;;;;;4999197;28;20192;-91
2023/01/23 03:45:13;;;;;;;9.03;1.03;;;2.80;99.90;;;;;;4999765;28;20421;-88
2023/01/23 03:47:39;;;;;;;1.93;0.70;;;2.80;99.90;;;;;;4994477;28;20176;-92
2023/01/23 03:50:05;;;;;;;2.67;0.93;;;2.80;99.90;;;;;;5009824;28;20719;-85
2023/01/23 03:52:31;;;;;;;3.07;1.27;;;2.90;99.90;;;;;;5013343;28;20215;-88
2023/01/23 03:54:56;;;;;;;3.93;1.10;;;2.80;99.90;;;;;;5008036;28;20415;-83
2023/01/23 03:57:22;;;;;;;1.07;0.57;;;2.80;99.90;;;;;;5001586;28;20164;-84
2023/01/23 03:59:47;;;;;;;1.40;0.73;;;2.90;99.90;;;;;;5012423;28;20189;-96
2023/01/23 04:02:13;;;;;;;1.20;0.60;;;2.80;99.90;;;;;;5011218;28;20233;-84
2023/01/23 04:04:39;;;;;;;1.20;0.67;;;2.90;99.90;;;;;;5006603;28;20202;-86
2023/01/23 04:07:05;;;;;;;2.73;1.00;;;2.80;99.90;;;;;;5014680;28;20176;-93
2023/01/23 04:09:30;;;;;;;2.97;0.60;;;2.80;99.90;;;;;;5007588;28;20266;-88
2023/01/23 04:11:59;;;;;;;3.70;1.30;;;2.80;99.90;;;;;;5009709;28;20428;-83
2023/01/23 04:14:36;;;;;;;5.03;0.90;;;2.80;99.90;;;;;;5012152;28;20173;-85
2023/01/23 04:17:02;;;;;;;3.20;1.00;;;2.90;99.90;;;;;;5008125;28;20425;-85
2023/01/23 04:19:28;;;;;;;2.53;0.87;;;2.80;99.90;;;;;;5004319;28;20460;-93
2023/01/23 04:21:53;;;;;;;2.83;1.63;;;2.80;99.90;;;;;;5007511;28;20979;-88
2023/01/23 04:24:19;;;;;;;2.00;1.13;;;2.90;99.90;;;;;;4997218;28;20222;-95
2023/01/23 04:26:51;;;;;;;2.47;1.67;;;2.90;99.90;;;;;;4991192;28;20640;-94
2023/01/23 04:29:16;;;;;;;2.53;1.40;;;2.80;99.90;;;;;;4995689;28;20215;-92
2023/01/23 04:31:42;;;;;;;2.83;1.20;;;2.90;99.90;;;;;;4996374;28;20442;-93
2023/01/23 04:34:07;;;;;;;1.73;0.93;;;2.80;99.90;;;;;;5001714;28;20537;-89
2023/01/23 04:36:33;;;;;;;3.53;0.90;;;2.90;99.90;;;;;;4996039;28;20171;-82
2023/01/23 04:38:58;;;;;;;2.80;0.73;;;2.90;99.90;;;;;;4996940;28;20185;-83
2023/01/23 04:41:26;;;;;;;2.13;0.93;;;3.00;99.90;;;;;;4997149;28;20231;-83
2023/01/23 04:43:52;;;;;;;2.30;0.90;;;3.00;99.90;;;;;;4997357;28;20207;-94
2023/01/23 04:46:17;;;;;;;1.80;0.90;;;2.90;99.90;;;;;;5002045;28;20428;-83
2023/01/23 04:48:43;;;;;;;3.97;1.17;;;3.00;99.90;;;;;;5002866;28;20253;-96
2023/01/23 04:51:08;;;;;;;2.03;1.00;;;3.00;99.90;;;;;;4998291;28;20174;-92
2023/01/23 04:53:34;;;;;;;3.20;1.80;;;3.00;99.90;;;;;;5003877;28;20251;-83
2023/01/23 04:56:00;;;;;;;1.93;1.40;;;3.00;99.90;;;;;;5001656;28;20184;-83
2023/01/23 04:58:25;;;;;;;3.93;1.30;;;2.90;99.90;;;;;;5000158;28;20187;-92
2023/01/23 05:00:51;;;;;;;1.80;1.17;;;2.90;99.90;;;;;;5005574;28;20184;-83
2023/01/23 05:03:18;;;;;;;1.63;0.97;;;3.00;99.90;;;;;;5005458;28;20172;-92
2023/01/23 05:05:43;;;;;;;1.73;0.97;;;3.00;99.90;;;;;;4997505;28;20181;-83
2023/01/23 05:08:10;;;;;;;2.90;1.40;;;2.90;99.90;;;;;;4974668;28;20446;-94
2023/01/23 05:10:36;;;;;;;4.43;1.37;;;2.90;99.90;;;;;;5002347;28;20197;-83
2023/01/23 05:13:02;;;;;;;2.63;1.70;;;2.80;99.90;;;;;;5013166;28;20930;-83
2023/01/23 05:15:28;;;;;;;3.37;1.93;;;2.80;99.90;;;;;;5002644;28;20175;-92
2023/01/23 05:17:53;;;;;;;4.00;1.40;;;2.80;99.90;;;;;;5010298;28;20203;-91
2023/01/23 05:20:19;;;;;;;2.93;0.90;;;2.70;99.90;;;;;;5008100;28;20419;-82
2023/01/23 05:22:51;;;;;;;4.70;2.60;;;2.70;99.90;;;;;;5012114;28;20179;-82
2023/01/23 05:25:27;;;;;;;4.50;1.40;;;2.80;99.90;;;;;;5032783;28;20176;-83
2023/01/23 05:27:53;;;;;;;2.30;1.30;;;2.80;99.90;;;;;;5012981;28;20484;-83
2023/01/23 05:30:21;;;;;;;2.30;1.27;;;2.70;99.90;;;;;;5011788;28;20430;-83
2023/01/23 05:32:47;;;;;;;3.03;1.57;;;2.80;99.90;;;;;;5011381;28;20170;-85
2023/01/23 05:35:14;;;;;;;3.43;2.10;;;2.80;99.90;;;;;;5014874;28;20426;-83
2023/01/23 05:37:39;;;;;;;5.83;1.80;;;2.80;99.90;;;;;;5012221;23;20484;-82
2023/01/23 05:40:07;;;;;;;2.40;1.13;;;2.70;99.90;;;;;;4977563;28;20451;-83
2023/01/23 05:42:33;;;;;;;1.90;1.33;;;2.80;99.90;;;;;;4987055;28;20167;-85
2023/01/23 05:44:59;;;;;;;4.27;2.00;;;2.70;99.90;;;;;;5001525;23;20476;-82
2023/01/23 05:47:24;;;;;;;2.87;1.67;;;2.80;99.90;;;;;;4983883;28;20444;-83
2023/01/23 05:49:50;;;;;;;2.87;2.30;;;2.90;99.90;;;;;;4978931;28;20261;-83
2023/01/23 05:52:20;;;;;;;3.10;1.60;;;2.80;99.90;;;;;;4976381;28;20233;-83
2023/01/23 05:55:12;;;;;;;4.40;2.77;;;2.90;99.90;;;;;;4991963;28;20708;-84
2023/01/23 05:57:37;;;;;;;4.13;2.73;;;2.90;99.90;;;;;;4996675;28;20431;-84
2023/01/23 06:00:05;;;;;;;3.03;1.70;;;2.90;99.90;;;;;;4991238;28;20520;-89
2023/01/23 06:02:32;;;;;;;3.43;2.50;;;2.90;99.90;;;;;;4965670;28;20264;-83
2023/01/23 06:04:57;;;;;;;4.77;1.70;;;2.90;99.90;;;;;;4990863;28;20455;-85
2023/01/23 06:07:27;;;;;;;5.63;1.87;;;2.80;99.90;;;;;;4974927;28;20432;-83
2023/01/23 06:09:52;;;;;;;2.67;1.83;;;2.90;99.90;;;;;;4984767;28;20516;-83
2023/01/23 06:12:18;;;;;;;2.83;1.20;;;2.90;99.90;;;;;;4989592;23;20489;-83
2023/01/23 06:14:47;;;;;;;3.77;2.03;;;2.80;99.90;;;;;;4956912;29;20521;-83
2023/01/23 06:17:13;;;;;;;2.20;1.07;;;2.80;99.90;;;;;;4928934;28;20185;-89
2023/01/23 06:19:38;;;;;;;3.40;1.70;;;2.80;99.90;;;;;;4959525;29;20424;-94
2023/01/23 06:22:04;;;;;;;2.90;1.77;;;2.80;99.90;;;;;;4957183;29;20421;-93
2023/01/23 06:24:30;;;;;;;2.00;1.73;;;2.80;99.90;;;;;;4958804;29;20187;-94
2023/01/23 06:26:55;;;;;;;2.23;1.70;;;2.80;99.90;;;;;;4959443;29;20177;-94
2023/01/23 06:29:21;;;;;;;6.83;3.00;;;2.80;99.90;;;;;;4958758;29;20204;-95
2023/01/23 06:31:46;;;;;;;2.87;1.97;;;2.80;99.90;;;;;;4945073;29;20207;-95
2023/01/23 06:34:13;;;;;;;5.77;1.67;;;2.90;99.90;;;;;;4944514;29;20233;-93
2023/01/23 06:36:39;;;;;;;3.17;1.80;;;2.90;99.90;;;;;;4945094;29;20179;-95
2023/01/23 06:39:08;;;;;;;3.00;2.57;;;2.90;99.90;;;;;;4942004;29;20493;-89
2023/01/23 06:41:33;;;;;;;4.37;2.00;;;2.80;99.90;;;;;;4961910;29;20173;-96
2023/01/23 06:43:59;;;;;;;4.40;2.00;;;2.80;99.90;;;;;;4961298;29;20417;-95
2023/01/23 06:46:24;;;;;;;4.10;1.63;;;2.80;99.90;;;;;;4961889;29;20284;-96
2023/01/23 06:48:53;;;;;;;5.73;3.00;;;2.80;99.90;;;;;;4963929;29;20228;-94
2023/01/23 06:51:18;;;;;;;4.17;2.53;;;2.80;99.90;;;;;;4975821;23;20165;-87
2023/01/23 06:53:44;;;;;;;4.40;1.67;;;2.80;99.90;;;;;;4957964;29;20444;-94
2023/01/23 06:56:10;;;;;;;4.10;1.57;;;2.90;99.90;;;;;;4978925;28;20160;-91
2023/01/23 06:58:37;;;;;;;3.87;2.30;;;2.90;99.90;;;;;;4972209;29;20192;-88
2023/01/23 07:01:14;;;;;;;2.67;1.90;;;2.90;99.90;;;;;;4947859;29;20487;-95
2023/01/23 07:03:41;;;;;;;3.70;1.90;;;2.80;99.90;;;;;;4958568;28;20455;-95
2023/01/23 07:06:07;;;;;;;2.27;2.07;;;2.80;99.90;;;;;;4964716;29;20477;-94
2023/01/23 07:08:33;;;;;;;4.90;2.67;;;2.80;99.90;;;;;;4975233;28;20465;-84
2023/01/23 07:10:59;;;;;;;3.70;2.30;;;2.80;99.90;;;;;;4962710;29;20444;-93
2023/01/23 07:13:25;;;;;;;2.87;1.80;;;2.80;99.90;;;;;;4962338;29;20479;-87
2023/01/23 07:15:51;;;;;;;6.70;2.47;;;2.80;99.90;;;;;;4960468;28;20805;-89
2023/01/23 07:18:16;;;;;;;5.30;3.03;;;2.70;99.90;;;;;;4956784;28;20214;-95
2023/01/23 07:20:46;;;;;;;4.80;2.47;;;2.70;99.90;;;;;;4960466;29;20236;-92
2023/01/23 07:23:12;;;;;;;3.13;1.70;;;2.70;99.90;;;;;;4966803;29;20173;-94
2023/01/23 07:25:38;;;;;;;5.30;2.30;;;2.70;99.90;;;;;;4969084;29;20453;-89
2023/01/23 07:28:04;;;;;;;3.87;2.40;;;2.70;99.90;;;;;;4967385;29;20512;-92
2023/01/23 07:30:30;;;;;;;4.80;2.10;;;2.70;99.90;;;;;;4966452;29;20425;-95
2023/01/23 07:33:02;;;;;;;5.97;2.50;;;2.80;99.90;;;;;;4967672;29;20404;-91
2023/01/23 07:35:27;;;;;;;2.57;1.50;;;2.70;99.90;;;;;;4965227;28;20173;-89
2023/01/23 07:37:53;;;;;;;3.93;1.57;;;2.80;99.90;;;;;;4961944;29;20475;-83
2023/01/23 07:40:18;;;;;;;4.53;2.87;;;2.80;99.90;;;;;;4962345;29;20185;-83
2023/01/23 07:42:45;;;;;;;4.10;2.47;;;2.80;99.90;;;;;;4960312;28;20188;-90
2023/01/23 07:45:11;;;;;;;4.97;2.70;;;2.80;99.90;;;;;;4960978;29;20248;-88
2023/01/23 07:47:38;;;;;;;4.73;2.90;;;2.80;99.90;;;;;;4926390;28;20429;-87
2023/01/23 07:50:13;;;;;;;5.17;3.07;;;2.80;99.90;;;;;;4964998;29;20464;-88
2023/01/23 07:52:38;;;;;;;4.20;2.40;;;2.80;99.90;;;;;;4967845;29;20468;-90
2023/01/23 07:55:05;;;;;;;6.37;2.30;;;2.80;99.90;;;;;;4965299;29;20917;-94
2023/01/23 07:57:32;;;;;;;3.97;2.50;;;2.90;99.90;;;;;;4967023;29;20206;-96
2023/01/23 07:59:58;;;;;;;3.70;2.13;;;2.90;99.90;;;;;;4948731;29;20945;-91
2023/01/23 08:02:24;;;;;;;2.93;2.00;;;2.90;99.90;;;;;;4968239;29;20437;-94
2023/01/23 08:04:52;;;;;;;4.07;3.03;;;2.80;99.90;;;;;;4966617;29;20232;-85
2023/01/23 08:07:18;;;;;;;6.73;2.57;;;2.90;99.90;;;;;;4963012;29;20267;-82
2023/01/23 08:09:44;;;;;;;4.20;3.40;;;3.00;99.90;;;;;;4969389;29;20499;-90
2023/01/23 08:12:11;;;;;;;4.50;3.17;;;3.00;99.90;;;;;;4965673;29;20218;-95
2023/01/23 08:14:39;;;;;;;4.27;2.77;;;2.90;99.90;;;;;;4966014;29;20170;-94
2023/01/23 08:17:05;;;;;;;4.37;2.97;;;3.00;99.90;;;;;;4965427;29;20840;-86
2023/01/23 08:19:30;;;;;;;5.70;3.23;;;3.10;99.90;;;;;;4965029;29;20452;-82
2023/01/23 08:21:55;;;;;;;5.50;3.23;;;3.00;99.90;;;;;;4961569;29;20260;-90
2023/01/23 08:24:21;;;;;;;4.43;2.50;;;3.00;99.90;;;;;;4966771;29;20173;-83
2023/01/23 08:26:46;;;;;;;7.07;2.53;;;2.90;99.90;;;;;;4958220;28;20227;-92
2023/01/23 08:29:12;;;;;;;6.40;2.60;;;3.00;99.90;;;;;;4967741;29;20225;-90
2023/01/23 08:31:38;;;;;;;4.73;2.20;;;3.00;99.90;;;;;;4967389;29;20256;-88
2023/01/23 08:34:04;;;;;;;6.97;3.37;;;3.00;99.90;;;;;;4968042;29;20175;-83
2023/01/23 08:36:30;;;;;;;5.33;2.70;;;3.00;99.90;;;;;;4975294;28;20509;-85
2023/01/23 08:38:56;;;;;;;4.70;2.00;;;3.00;99.90;;;;;;4968506;29;20455;-93
2023/01/23 08:41:22;;;;;;;6.90;3.17;;;3.00;99.90;;;;;;4968316;29;20265;-96
2023/01/23 08:43:48;;;;;;;8.73;4.10;;;3.10;99.90;;;;;;4951427;29;20186;-93
2023/01/23 08:46:14;;;;;;;5.00;3.10;;;3.10;99.90;;;;;;4967212;29;20425;-95
2023/01/23 08:48:40;;;;;;;7.07;3.13;;;3.10;99.90;;;;;;4966713;29;20482;-92
2023/01/23 08:51:12;;;;;;;7.30;3.93;;;3.10;99.90;;;;;;4966631;29;20176;-93
2023/01/23 08:53:39;;;;;;;6.57;2.93;;;3.10;99.90;;;;;;4966977;29;20528;-92
2023/01/23 08:56:07;;;;;;;5.53;3.70;;;3.10;99.90;;;;;;4966413;29;20425;-92
2023/01/23 08:58:36;;;;;;;8.90;4.17;;;3.10;99.90;;;;;;4964792;29;20427;-81
2023/01/23 09:01:02;;;;;;;5.57;2.90;;;3.20;99.90;;;;;;4948624;29;20424;-85
2023/01/23 09:03:27;;;;;;;8.30;3.87;;;3.20;99.90;;;;;;4962236;29;20617;-94
2023/01/23 09:05:52;;;;;;;7.10;3.30;;;3.30;99.90;;;;;;4961426;29;20178;-86
2023/01/23 09:08:18;;;;;;;7.03;3.73;;;3.30;99.90;;;;;;4966995;29;20235;-81
2023/01/23 09:10:44;;;;;;;7.50;4.40;;;3.30;99.90;;;;;;4968234;29;20534;-84
2023/01/23 09:13:09;;;;;;;6.33;3.50;;;3.30;99.90;;;;;;4966494;29;20174;-95
2023/01/23 09:15:38;;;;;;;6.27;3.40;;;3.40;99.90;;;;;;4949742;29;20177;-95
2023/01/23 09:18:04;;;;;;;7.53;3.90;;;3.40;99.90;;;;;;4951295;29;20247;-91
2023/01/23 09:20:29;;;;;;;7.77;4.50;;;3.40;99.90;;;;;;4965247;29;20417;-82
2023/01/23 09:22:55;;;;;;;7.43;3.47;;;3.40;99.90;;;;;;4965423;29;20433;-95
2023/01/23 09:25:20;;;;;;;6.40;4.43;;;3.50;99.90;;;;;;4964940;29;20185;-93
2023/01/23 09:27:46;;;;;;;7.17;3.50;;;3.50;99.90;;;;;;4916804;28;20198;-81
2023/01/23 09:30:12;;;;;;;7.77;4.17;;;3.40;99.90;;;;;;4975919;28;20221;-92
2023/01/23 09:32:37;;;;;;;11.10;4.53;;;3.40;99.90;;;;;;4975614;28;20174;-82
2023/01/23 09:35:03;;;;;;;9.40;3.90;;;3.40;99.90;;;;;;4974935;28;20428;-86
2023/01/23 09:37:58;;;;;;;5.20;3.50;;;3.50;99.90;;;;;;4976655;28;20172;-81
2023/01/23 09:40:21;;;;;;;11.50;4.30;;;3.50;99.90;;;;;;4981283;28;20775;-94
2023/01/23 09:42:48;;;;;;;8.03;3.57;;;3.40;99.90;;;;;;4980004;28;20477;-86
2023/01/23 09:45:26;;;;;;;6.50;3.00;;;3.40;99.90;;;;;;4981243;28;20488;-94
2023/01/23 09:48:08;;;;;;;6.00;3.20;;;3.60;99.90;;;;;;4981580;28;20408;-95
2023/01/23 09:50:38;;;;;;;6.63;3.90;;;3.60;99.90;;;;;;4982444;28;20826;-94
2023/01/23 09:53:11;;;;;;;5.20;2.70;;;3.60;99.90;;;;;;4986298;28;20507;-93
2023/01/23 09:55:49;;;;;;;7.97;4.30;;;3.60;99.90;;;;;;4984156;28;20425;-93
2023/01/23 09:58:25;;;;;;;6.40;4.00;;;3.70;99.90;;;;;;4982783;28;20446;-94
2023/01/23 10:00:51;;;;;;;8.40;4.83;;;3.60;99.90;;;;;;4966115;28;20905;-93
2023/01/23 10:03:17;;;;;;;9.87;3.47;;;3.60;99.90;;;;;;4967269;29;20446;-82
2023/01/23 10:06:03;;;;;;;9.80;4.57;;;3.70;99.90;;;;;;4975924;28;20216;-89
2023/01/23 10:08:43;;;;;;;8.60;4.70;;;3.70;99.90;;;;;;4957248;29;20249;-93
2023/01/23 10:11:35;;;;;;;8.20;4.73;;;3.70;99.90;;;;;;4963652;29;20423;-93
2023/01/23 10:14:06;;;;;;;5.93;3.90;;;3.70;99.90;;;;;;4963192;29;20767;-94
2023/01/23 10:16:55;;;;;;;6.33;4.13;;;3.80;99.90;;;;;;4963440;29;20445;-96
2023/01/23 10:19:49;;;;;;;7.87;4.90;;;3.90;99.90;;;;;;4961892;29;20443;-96
2023/01/23 10:22:39;;;;;;;8.90;5.53;;;3.80;99.90;;;;;;4964505;29;20446;-95
2023/01/23 10:25:13;;;;;;;8.90;4.43;;;3.80;99.90;;;;;;4961511;29;20765;-89
2023/01/23 10:27:43;;;;;;;8.83;5.80;;;3.90;99.90;;;;;;4976408;28;20418;-82
2023/01/23 10:30:28;;;;;;;11.10;6.13;;;4.00;99.90;;;;;;4959693;29;20466;-87
2023/01/23 10:33:10;;;;;;;10.50;6.63;;;4.00;99.90;;;;;;4959754;29;20414;-82
2023/01/23 10:35:50;;;;;;;13.43;5.50;;;4.00;99.90;;;;;;4959757;29;20465;-83
2023/01/23 10:38:23;;;;;;;9.77;5.70;;;4.10;99.90;;;;;;4960190;28;20926;-85
2023/01/23 10:41:34;;;;;;;12.53;6.40;;;4.10;99.90;;;;;;4958931;29;20403;-85
2023/01/23 10:43:42;;;;;;;9.73;6.30;;;4.20;99.90;;;;;;4940419;29;20427;-86
2023/01/23 10:46:13;;;;;;;9.87;5.50;;;4.10;99.90;;;;;;4958930;29;20404;-83
2023/01/23 10:48:44;;;;;;;11.47;6.20;;;4.20;99.90;;;;;;4956862;28;20461;-91
2023/01/23 10:51:44;;;;;;;9.10;4.30;;;4.20;99.90;;;;;;4958824;29;20423;-85
2023/01/23 10:54:13;;;;;;;8.53;4.80;;;4.30;99.90;;;;;;4959500;29;20421;-89
2023/01/23 10:56:57;;;;;;;9.13;5.67;;;4.30;99.90;;;;;;4959539;29;20437;-92
2023/01/23 10:59:28;;;;;;;9.67;5.50;;;4.20;99.90;;;;;;4959748;29;20445;-91
2023/01/23 11:02:03;;;;;;;13.77;7.40;;;4.20;99.90;;;;;;4974414;28;20421;-87
2023/01/23 11:04:34;;;;;;;6.60;4.23;;;4.20;99.90;;;;;;4958972;29;20507;-89
2023/01/23 11:07:15;;;;;;;8.60;5.00;;;4.20;99.90;;;;;;4958634;29;20775;-86
2023/01/23 11:09:49;;;;;;;11.00;6.40;;;4.20;99.90;;;;;;4959099;29;20472;-89
2023/01/23 11:12:26;;;;;;;9.90;4.43;;;4.20;99.90;;;;;;4958357;29;20414;-92
2023/01/23 11:15:24;;;;;;;9.73;5.70;;;4.20;99.90;;;;;;4958485;29;20405;-93
2023/01/23 11:17:52;;;;;;;11.30;5.70;;;4.20;99.90;;;;;;4958420;29;20973;-86
2023/01/23 11:20:37;;;;;;;8.93;5.53;;;4.20;99.90;;;;;;4958212;29;20406;-83
2023/01/23 11:23:12;;;;;;;10.10;5.43;;;4.20;99.90;;;;;;4958567;29;20410;-85
2023/01/23 11:25:51;;;;;;;9.80;5.60;;;4.20;99.90;;;;;;4959484;29;20446;-86
2023/01/23 11:28:19;;;;;;;6.83;5.20;;;4.30;99.90;;;;;;4974637;28;20437;-88
2023/01/23 11:31:05;;;;;;;10.10;5.63;;;4.20;99.90;;;;;;4963282;29;20424;-91
2023/01/23 11:34:10;;;;;;;11.13;5.33;;;4.10;99.90;;;;;;4969691;29;20440;-82
2023/01/23 11:37:00;;;;;;;13.13;5.67;;;4.10;99.90;;;;;;4961246;29;20414;-87
2023/01/23 11:39:41;;;;;;;10.37;6.43;;;4.00;99.90;;;;;;4958127;29;20413;-86
2023/01/23 11:42:10;;;;;;;8.63;5.00;;;4.10;99.90;;;;;;4943420;29;20428;-89
2023/01/23 11:44:38;;;;;;;13.83;6.50;;;4.10;99.90;;;;;;4958540;29;20412;-84
2023/01/23 11:47:17;;;;;;;11.90;6.80;;;4.20;99.90;;;;;;4974088;28;20417;-85
2023/01/23 11:49:54;;;;;;;14.03;5.80;;;4.20;99.90;;;;;;4957141;29;21197;-89
2023/01/23 11:52:54;;;;;;;12.50;7.50;;;4.20;99.90;;;;;;4956946;29;20475;-85
2023/01/23 11:55:44;;;;;;;12.27;7.37;;;4.30;99.90;;;;;;4972340;28;20429;-95
2023/01/23 11:58:21;;;;;;;11.43;7.00;;;4.20;99.90;;;;;;4972129;28;20424;-86
2023/01/23 12:01:11;;;;;;;8.77;5.13;;;4.20;99.90;;;;;;4955768;28;20898;-86
2023/01/23 12:03:57;;;;;;;11.97;7.17;;;4.30;99.90;;;;;;4956152;29;20783;-86
2023/01/23 12:06:47;;;;;;;22.60;11.47;;;4.30;99.90;;;;;;4956059;29;20434;-86
2023/01/23 12:09:20;;;;;;;9.00;5.67;;;4.20;99.90;;;;;;4957799;29;20477;-89
2023/01/23 12:12:09;;;;;;;10.50;6.63;;;4.30;99.90;;;;;;4973763;28;20422;-87
2023/01/23 12:14:56;;;;;;;12.40;7.00;;;4.20;99.90;;;;;;4957082;29;20450;-83
2023/01/23 12:17:43;;;;;;;14.23;7.70;;;4.20;99.90;;;;;;4956415;29;20924;-83
2023/01/23 12:20:53;;;;;;;13.50;7.10;;;4.20;99.90;;;;;;4970975;28;20416;-84
2023/01/23 12:23:36;;;;;;;9.50;5.90;;;4.20;99.90;;;;;;4896643;29;20428;-84
2023/01/23 12:26:13;;;;;;;13.03;7.23;;;4.20;99.90;;;;;;4896695;29;20469;-83
2023/01/23 12:29:14;;;;;;;11.93;5.87;;;4.30;99.90;;;;;;4953118;28;20540;-87
2023/01/23 12:32:11;;;;;;;9.77;6.47;;;4.20;99.90;;;;;;4955476;29;20427;-86
2023/01/23 12:35:17;;;;;;;9.80;4.73;;;4.20;99.90;;;;;;4932374;29;20422;-89
2023/01/23 12:38:08;;;;;;;10.10;5.93;;;4.20;99.90;;;;;;4955496;29;20502;-82
2023/01/23 12:40:46;;;;;;;9.97;5.30;;;4.20;99.90;;;;;;4955787;29;20775;-85
2023/01/23 12:43:55;;;;;;;11.93;6.77;;;4.30;99.90;;;;;;4955373;29;20464;-85
2023/01/23 12:46:33;;;;;;;11.30;6.10;;;4.30;99.90;;;;;;4933221;29;20458;-91
2023/01/23 12:49:26;;;;;;;11.67;6.70;;;4.20;99.90;;;;;;4956590;29;20965;-86
2023/01/23 12:52:28;;;;;;;12.73;6.93;;;4.30;99.90;;;;;;4957451;29;20491;-85
2023/01/23 12:55:01;;;;;;;15.93;10.00;;;4.30;99.90;;;;;;4956175;29;20477;-82
2023/01/23 12:57:50;;;;;;;14.10;8.40;;;4.30;99.90;;;;;;4955850;29;20450;-86
2023/01/23 13:00:31;;;;;;;10.87;7.13;;;4.30;99.90;;;;;;4956403;29;20435;-80
2023/01/23 13:03:33;;;;;;;11.57;7.00;;;4.30;99.90;;;;;;4959983;29;20940;-81
2023/01/23 13:05:58;;;;;;;10.87;6.43;;;4.30;99.90;;;;;;4955561;29;20405;-87
2023/01/23 13:08:50;;;;;;;10.13;6.43;;;4.30;99.90;;;;;;4956919;29;20413;-86
2023/01/23 13:11:39;;;;;;;11.97;6.00;;;4.30;99.90;;;;;;4954677;29;20197;-84
2023/01/23 13:14:42;;;;;;;14.47;7.10;;;4.40;99.90;;;;;;4958668;28;20410;-86
2023/01/23 13:17:37;;;;;;;14.00;7.47;;;4.30;99.90;;;;;;4959786;29;20778;-88
2023/01/23 13:23:29;;;;;;;9.53;4.90;;;4.20;99.90;;;;;;4959100;29;20516;-84
2023/01/23 13:26:21;;;;;;;11.33;5.60;;;4.10;99.90;;;;;;4958998;29;20493;-88